Share

Wainwright, AK

6:41 AM AKDT on April 23, 2014 (GMT -0800)
Wainwright (PAWI) Elev 39 ft | 70.64 °N, 159.99 °W | Change Station

Current weather conditions updated 48 minutes ago

Overcast
Overcast
20 °F
Feels Like 15 °F
N
4
Wind Variable Wind from North
Sunrise 5:46 AM
Sunset 11:34 PM
Moon Waning Crescent

Today is forecast to be Warmer than yesterday.

Pressure 29.97 in
Visibility 10.0 miles
Clouds Overcast 6500 ft
Windchill 15 °F
Dew Point 16 °F
Humidity 85%
Rainfall 0.00 in
Snow Depth Not available.
UV 0 out of 16
Pollen Not available.
Air Quality Not available.
Flu Activity Sporadic
METAR PAWI 231353Z AUTO 01003KT 10SM OVC065 M07/M09 A2996 RMK AO2 SLP147 T10671089 TSNO

More Conditions Fewer Conditions

Pressure 29.97 in
Visibility 10.0 miles
Clouds Overcast 6500 ft
Windchill 15 °F
Dew Point 16 °F
Humidity 85%
Rainfall 0.00 in
Snow Depth Not available.
UV 0 out of 16
Pollen Not available.
Air Quality Not available.
Flu Activity Sporadic
METAR PAWI 231353Z AUTO 01003KT 10SM OVC065 M07/M09 A2996 RMK AO2 SLP147 T10671089 TSNO

More Conditions Fewer Conditions

10-Day Weather Forecast

Almanac

Astronomy

Apr. 23, 2014 Rise Set
Actual Time 5:46 AM AKDT 11:34 PM AKDT
Civil Twilight 3:44 AM AKDT 1:46 AM AKDT
Nautical Twilight Sun does not rise Sun does not rise
Astronomical Twilight Sun does not rise Sun does not rise
Moon 6:00 AM AKDT 2:30 PM AKDT
Length of Visible Light 22h 02m
Length of Day
17h 48m
Tomorrow will be 11m 1s longer.
Waning Crescent, 36% of the Moon is Illuminated
Today
Waning Crescent
Apr 29
New
May 6
First Quarter
May 14
Full
May 21
Last Quarter

Today's Extremes

State Highs State Lows

Community

  • spring flowers
    spring flowers
  • Earth Day Spectrum Ove' Blue
    Earth Day Spectrum Ove' Blue
  • BARN B&W
    BARN B&W
  • April Sunset
    April Sunset
  • Waiting..
    Waiting..

WunderPhotos

Upload Photos

1,704,299 photos uploaded!

Nearby

Snow Depth

Station Depth Elevation
Imnaviat Creek 26 in 3050 ft
Atigun Pass 37 in 4800 ft
Coldfoot 21 in 1040 ft
Gobblers Knob 7 in 2030 ft
Pargon Creek 0 in 300 ft

Coastal Water Temperatures

Place Temperature
No Stations Reporting

Earthquake Activity

City Distance Mag. Time & Date
No recent earthquake activity has been reported nearby.
Minimum magnitude displayed is 2.5.

Nearby Weather Stations

There are no personal weather stations in this area.

What do you think?

We're not finished. Please let us know what you like, what you don't like, and what you are still missing.